Time;durP1;ratioP1;P1;durP2;ratioP2;P2;SDS_P1;SDS_P2;PMS_P1;PMS_P2;Temp;Humidity;BMP_temperature;BMP_pressure;BME280_temperature;BME280_humidity;BME280_pressure;Samples;Min_cycle;Max_cycle;Signal;HPM_P1;HPM_P2
2022/09/21 00:01:03;;;;;;;6.97;3.10;;;;;;;;;;5049524;28;20041;-57
2022/09/21 00:03:29;;;;;;;9.17;4.00;;;;;;;;;;5050185;28;20529;-57
2022/09/21 00:06:01;;;;;;;8.60;3.83;;;;;;;;;;5050842;28;20483;-57
2022/09/21 00:08:27;;;;;;;7.37;3.37;;;;;;;;;;5050831;28;20103;-57
2022/09/21 00:10:53;;;;;;;11.47;4.67;;;;;;;;;;5050695;28;20057;-57
2022/09/21 00:13:20;;;;;;;8.20;3.73;;;;;;;;;;5050384;28;20495;-58
2022/09/21 00:15:46;;;;;;;11.80;4.10;;;;;;;;;;5050291;28;20422;-58
2022/09/21 00:18:12;;;;;;;8.93;3.33;;;;;;;;;;5038388;28;20825;-58
2022/09/21 00:20:40;;;;;;;9.60;4.13;;;;;;;;;;5030502;28;20060;-58
2022/09/21 00:23:06;;;;;;;13.77;4.47;;;;;;;;;;5049035;28;20036;-58
2022/09/21 00:25:32;;;;;;;7.33;4.57;;;;;;;;;;5050473;28;20296;-58
2022/09/21 00:27:58;;;;;;;10.13;5.03;;;;;;;;;;5050613;28;20037;-58
2022/09/21 00:30:24;;;;;;;9.70;4.60;;;;;;;;;;5050444;28;20049;-58
2022/09/21 00:32:50;;;;;;;11.97;4.57;;;;;;;;;;5038839;28;20559;-58
2022/09/21 00:35:16;;;;;;;13.97;5.43;;;;;;;;;;5030563;28;20487;-58
2022/09/21 00:37:42;;;;;;;11.13;4.70;;;;;;;;;;5047178;28;20041;-58
2022/09/21 00:40:08;;;;;;;14.83;5.00;;;;;;;;;;5049626;28;20129;-58
2022/09/21 00:42:34;;;;;;;12.97;3.60;;;;;;;;;;5050077;28;20068;-58
2022/09/21 00:45:01;;;;;;;11.13;3.80;;;;;;;;;;5050129;28;20530;-58
2022/09/21 00:47:33;;;;;;;5.50;2.90;;;;;;;;;;5049682;28;20048;-58
2022/09/21 00:50:00;;;;;;;9.80;4.67;;;;;;;;;;5049506;28;20041;-57
2022/09/21 00:52:30;;;;;;;9.67;3.90;;;;;;;;;;5049971;28;20053;-57
2022/09/21 00:54:58;;;;;;;8.27;3.93;;;;;;;;;;5049643;28;20175;-58
2022/09/21 00:57:25;;;;;;;9.50;3.20;;;;;;;;;;5049833;28;20105;-57
2022/09/21 00:59:53;;;;;;;12.80;4.27;;;;;;;;;;5049985;28;20618;-57
2022/09/21 01:02:19;;;;;;;7.30;2.87;;;;;;;;;;5048917;28;20053;-57
2022/09/21 01:04:46;;;;;;;13.97;4.57;;;;;;;;;;5049520;28;20056;-57
2022/09/21 01:07:18;;;;;;;7.47;3.40;;;;;;;;;;5049756;28;20514;-57
2022/09/21 01:09:46;;;;;;;7.27;3.20;;;;;;;;;;5049387;28;20057;-58
2022/09/21 01:12:31;;;;;;;8.53;4.00;;;;;;;;;;5048805;28;20099;-58
2022/09/21 01:15:06;;;;;;;7.10;3.30;;;;;;;;;;5048283;28;20619;-57
2022/09/21 01:17:39;;;;;;;10.97;4.13;;;;;;;;;;5048888;28;20076;-57
2022/09/21 01:20:14;;;;;;;31.48;3.88;;;;;;;;;;5049435;28;20041;-57
2022/09/21 01:22:47;;;;;;;7.00;3.50;;;;;;;;;;5049500;28;20087;-57
2022/09/21 01:25:32;;;;;;;6.72;3.22;;;;;;;;;;5047989;28;20503;-57
2022/09/21 01:28:13;;;;;;;11.37;4.17;;;;;;;;;;5049210;28;20545;-57
2022/09/21 01:30:40;;;;;;;11.00;4.97;;;;;;;;;;5049750;28;20053;-57
2022/09/21 01:33:12;;;;;;;14.50;5.97;;;;;;;;;;5049194;28;20392;-57
2022/09/21 01:35:43;;;;;;;18.10;5.37;;;;;;;;;;5048735;28;20063;-57
2022/09/21 01:38:15;;;;;;;16.97;6.43;;;;;;;;;;5048312;28;20048;-57
2022/09/21 01:40:43;;;;;;;10.27;5.30;;;;;;;;;;5048597;28;20091;-57
2022/09/21 01:43:13;;;;;;;11.90;4.70;;;;;;;;;;5049049;28;20072;-58
2022/09/21 01:45:48;;;;;;;19.10;6.53;;;;;;;;;;5048921;28;20139;-58
2022/09/21 01:48:15;;;;;;;13.37;5.50;;;;;;;;;;5048889;28;20494;-57
2022/09/21 01:50:43;;;;;;;17.13;6.33;;;;;;;;;;5048571;28;20037;-57
2022/09/21 01:53:19;;;;;;;13.00;5.77;;;;;;;;;;5048779;28;20502;-57
2022/09/21 01:55:49;;;;;;;14.77;4.47;;;;;;;;;;5048460;28;20056;-58
2022/09/21 01:58:16;;;;;;;8.37;4.20;;;;;;;;;;5048221;28;20145;-58
2022/09/21 02:00:45;;;;;;;9.97;4.57;;;;;;;;;;5047932;28;20052;-58
2022/09/21 02:03:11;;;;;;;13.40;4.60;;;;;;;;;;5048221;28;20049;-59
2022/09/21 02:05:37;;;;;;;8.13;3.93;;;;;;;;;;5046840;28;20106;-58
2022/09/21 02:08:05;;;;;;;7.90;4.03;;;;;;;;;;5037967;28;20447;-58
2022/09/21 02:10:33;;;;;;;8.93;4.23;;;;;;;;;;5041763;28;20503;-57
2022/09/21 02:13:02;;;;;;;7.47;3.10;;;;;;;;;;5048401;28;20049;-56
2022/09/21 02:15:32;;;;;;;7.97;3.80;;;;;;;;;;5047996;28;20067;-57
2022/09/21 02:18:04;;;;;;;6.53;2.80;;;;;;;;;;5048122;28;20586;-57
2022/09/21 02:20:35;;;;;;;6.27;2.77;;;;;;;;;;5048354;28;20082;-57
2022/09/21 02:23:07;;;;;;;5.73;2.37;;;;;;;;;;5048256;28;20053;-57
2022/09/21 02:25:52;;;;;;;5.20;2.27;;;;;;;;;;5047351;28;20049;-57
2022/09/21 02:28:38;;;;;;;5.77;2.70;;;;;;;;;;5048408;28;20037;-57
2022/09/21 02:31:23;;;;;;;7.47;2.40;;;;;;;;;;5048094;28;20155;-57
2022/09/21 02:33:49;;;;;;;8.83;2.63;;;;;;;;;;5048092;28;20048;-57
2022/09/21 02:36:20;;;;;;;7.13;3.00;;;;;;;;;;5045763;28;20191;-57
2022/09/21 02:38:46;;;;;;;9.47;4.00;;;;;;;;;;5048349;28;20056;-58
2022/09/21 02:41:30;;;;;;;5.23;2.10;;;;;;;;;;5048520;28;20103;-57
2022/09/21 02:43:56;;;;;;;4.47;1.60;;;;;;;;;;5047861;28;20132;-57
2022/09/21 02:46:26;;;;;;;5.73;2.13;;;;;;;;;;5048187;28;20125;-57
2022/09/21 02:48:58;;;;;;;6.10;2.80;;;;;;;;;;5047851;28;20049;-57
2022/09/21 02:51:32;;;;;;;5.23;3.30;;;;;;;;;;5048101;28;20132;-57
2022/09/21 02:53:59;;;;;;;6.00;3.50;;;;;;;;;;5047891;28;20053;-57
2022/09/21 02:56:26;;;;;;;7.70;3.53;;;;;;;;;;5047664;28;20049;-57
2022/09/21 02:58:54;;;;;;;6.27;3.00;;;;;;;;;;5047920;28;20049;-57
2022/09/21 03:01:21;;;;;;;5.50;2.43;;;;;;;;;;5047279;28;20049;-57
2022/09/21 03:03:47;;;;;;;6.80;2.57;;;;;;;;;;5047910;28;20237;-57
2022/09/21 03:06:14;;;;;;;7.10;3.30;;;;;;;;;;5047265;28;20044;-57
2022/09/21 03:08:40;;;;;;;9.23;3.23;;;;;;;;;;5047118;28;20045;-56
2022/09/21 03:11:06;;;;;;;2.73;1.60;;;;;;;;;;5048049;28;20060;-57
2022/09/21 03:13:33;;;;;;;8.03;2.70;;;;;;;;;;5047287;28;20049;-57
2022/09/21 03:16:03;;;;;;;5.13;2.30;;;;;;;;;;5047201;28;20049;-57
2022/09/21 03:18:30;;;;;;;3.33;1.63;;;;;;;;;;5032767;28;20037;-57
2022/09/21 03:20:56;;;;;;;5.57;2.80;;;;;;;;;;5027421;28;20531;-57
2022/09/21 03:23:22;;;;;;;6.93;3.00;;;;;;;;;;5028478;28;20172;-57
2022/09/21 03:25:48;;;;;;;5.50;2.83;;;;;;;;;;5047621;28;20522;-57
2022/09/21 03:28:16;;;;;;;15.47;3.97;;;;;;;;;;5047460;28;20140;-57
2022/09/21 03:30:42;;;;;;;12.30;4.57;;;;;;;;;;5047457;28;20056;-57
2022/09/21 03:33:09;;;;;;;10.77;4.60;;;;;;;;;;5047034;28;20131;-57
2022/09/21 03:35:35;;;;;;;14.57;5.70;;;;;;;;;;5047691;28;20407;-57
2022/09/21 03:38:01;;;;;;;14.97;5.70;;;;;;;;;;5051695;28;20080;-57
2022/09/21 03:40:28;;;;;;;16.27;6.20;;;;;;;;;;5042326;28;20057;-57
2022/09/21 03:42:54;;;;;;;14.80;5.80;;;;;;;;;;5045651;28;20095;-57
2022/09/21 03:45:21;;;;;;;11.20;4.77;;;;;;;;;;5051661;28;20037;-57
2022/09/21 03:47:47;;;;;;;12.63;4.77;;;;;;;;;;5038697;28;20054;-57
2022/09/21 03:50:14;;;;;;;9.50;3.67;;;;;;;;;;5030924;28;20044;-57
2022/09/21 03:52:40;;;;;;;25.00;4.60;;;;;;;;;;5030922;28;20056;-56
2022/09/21 03:55:07;;;;;;;14.73;5.33;;;;;;;;;;5031253;28;20503;-57
2022/09/21 03:57:34;;;;;;;15.80;5.83;;;;;;;;;;5031165;28;20133;-57
2022/09/21 04:00:02;;;;;;;17.23;7.17;;;;;;;;;;5030991;28;20045;-56
2022/09/21 04:02:28;;;;;;;22.47;6.63;;;;;;;;;;5042622;28;20055;-57
2022/09/21 04:04:54;;;;;;;13.90;6.00;;;;;;;;;;5050639;28;20041;-57
2022/09/21 04:07:21;;;;;;;18.43;6.00;;;;;;;;;;5032218;28;20041;-58
2022/09/21 04:09:47;;;;;;;14.90;6.70;;;;;;;;;;5034056;28;20195;-56
2022/09/21 04:12:13;;;;;;;12.37;6.87;;;;;;;;;;5051278;28;20063;-57
2022/09/21 04:14:39;;;;;;;20.90;6.73;;;;;;;;;;5050755;28;20574;-57
2022/09/21 04:17:05;;;;;;;11.80;6.03;;;;;;;;;;5034592;28;20439;-57
2022/09/21 04:19:31;;;;;;;17.60;6.57;;;;;;;;;;5031015;28;20052;-57
2022/09/21 04:21:57;;;;;;;13.93;6.20;;;;;;;;;;5030898;28;20050;-57
2022/09/21 04:24:23;;;;;;;17.23;6.77;;;;;;;;;;5042385;28;20113;-57
2022/09/21 04:26:49;;;;;;;16.17;5.47;;;;;;;;;;5050629;28;20045;-57
2022/09/21 04:29:15;;;;;;;7.87;5.10;;;;;;;;;;5050699;28;20053;-57
2022/09/21 04:31:42;;;;;;;7.53;3.60;;;;;;;;;;5050369;28;20091;-57
2022/09/21 04:34:11;;;;;;;9.57;4.40;;;;;;;;;;5050375;28;20049;-58
2022/09/21 04:36:37;;;;;;;23.03;4.43;;;;;;;;;;5050141;28;20053;-57
2022/09/21 04:39:04;;;;;;;7.30;3.40;;;;;;;;;;5050001;28;20500;-57
2022/09/21 04:41:30;;;;;;;9.70;4.00;;;;;;;;;;5049750;28;20431;-57
2022/09/21 04:43:56;;;;;;;6.90;3.47;;;;;;;;;;5050029;28;20056;-58
2022/09/21 04:46:22;;;;;;;7.70;4.07;;;;;;;;;;5050317;28;20116;-57
2022/09/21 04:48:48;;;;;;;6.43;3.67;;;;;;;;;;5048472;28;20489;-57
2022/09/21 04:51:15;;;;;;;7.50;3.97;;;;;;;;;;5048524;28;20120;-57
2022/09/21 04:53:43;;;;;;;7.90;4.57;;;;;;;;;;5037221;28;20045;-58
2022/09/21 04:56:10;;;;;;;8.83;5.00;;;;;;;;;;5027989;28;20056;-57
2022/09/21 04:58:36;;;;;;;11.40;4.30;;;;;;;;;;5028211;28;20049;-57
2022/09/21 05:01:03;;;;;;;9.97;4.80;;;;;;;;;;5027602;28;20419;-57
2022/09/21 05:03:30;;;;;;;9.77;4.90;;;;;;;;;;5036435;28;20045;-58
2022/09/21 05:05:59;;;;;;;14.50;5.23;;;;;;;;;;5049958;28;20045;-57
2022/09/21 05:11:12;;;;;;;13.40;5.47;;;;;;;;;;5049400;28;20049;-58
2022/09/21 05:13:38;;;;;;;68.97;13.87;;;;;;;;;;5049212;28;20102;-58
2022/09/21 05:16:04;;;;;;;8.70;4.90;;;;;;;;;;5049579;28;20517;-57
2022/09/21 05:18:31;;;;;;;11.03;5.13;;;;;;;;;;5049936;28;20045;-57
2022/09/21 05:20:58;;;;;;;10.07;5.23;;;;;;;;;;5048874;28;20768;-57
2022/09/21 05:23:24;;;;;;;14.13;6.40;;;;;;;;;;5049419;28;20049;-57
2022/09/21 05:25:50;;;;;;;14.30;6.50;;;;;;;;;;5049539;28;20422;-57
2022/09/21 05:28:17;;;;;;;18.97;7.20;;;;;;;;;;5048033;28;20056;-57
2022/09/21 05:30:44;;;;;;;16.17;5.87;;;;;;;;;;5038111;28;20056;-57
2022/09/21 05:33:13;;;;;;;14.90;6.53;;;;;;;;;;5048626;28;20048;-57
2022/09/21 05:35:51;;;;;;;18.90;7.70;;;;;;;;;;5041617;28;20041;-57
2022/09/21 05:38:18;;;;;;;14.70;6.30;;;;;;;;;;5049009;28;20049;-57
2022/09/21 05:40:46;;;;;;;15.23;6.23;;;;;;;;;;5048891;28;20053;-58
2022/09/21 05:43:12;;;;;;;10.63;6.13;;;;;;;;;;5049169;28;20142;-57
2022/09/21 05:45:42;;;;;;;17.20;6.90;;;;;;;;;;5037473;28;20049;-57
2022/09/21 05:48:14;;;;;;;14.50;6.53;;;;;;;;;;5029223;28;20052;-57
2022/09/21 05:50:43;;;;;;;11.60;5.85;;;;;;;;;;5037488;28;20052;-57
2022/09/21 05:53:09;;;;;;;11.10;5.77;;;;;;;;;;5045440;28;20399;-57
2022/09/21 05:55:38;;;;;;;11.60;5.57;;;;;;;;;;5029096;28;20106;-57
2022/09/21 05:58:04;;;;;;;13.20;6.30;;;;;;;;;;5027621;28;20045;-58
2022/09/21 06:00:38;;;;;;;15.60;5.87;;;;;;;;;;5028624;28;20495;-57
2022/09/21 06:03:16;;;;;;;11.30;5.93;;;;;;;;;;5028571;28;20050;-58
2022/09/21 06:05:43;;;;;;;10.73;6.30;;;;;;;;;;5038919;28;20044;-58
2022/09/21 06:08:09;;;;;;;11.77;5.63;;;;;;;;;;5048480;28;20052;-57
2022/09/21 06:10:35;;;;;;;15.60;6.33;;;;;;;;;;5047523;28;20092;-57
2022/09/21 06:13:01;;;;;;;16.60;6.53;;;;;;;;;;5048299;28;20041;-58
2022/09/21 06:15:27;;;;;;;13.17;6.77;;;;;;;;;;5048226;28;20072;-58
2022/09/21 06:17:53;;;;;;;11.07;6.93;;;;;;;;;;5047484;28;20109;-58
2022/09/21 06:20:19;;;;;;;12.43;6.13;;;;;;;;;;5047521;28;20045;-58
2022/09/21 06:22:45;;;;;;;11.27;6.57;;;;;;;;;;5047740;28;20049;-58
2022/09/21 06:25:11;;;;;;;15.60;6.83;;;;;;;;;;5046771;28;20081;-58
2022/09/21 06:27:37;;;;;;;17.70;9.20;;;;;;;;;;5048137;28;20099;-58
2022/09/21 06:30:04;;;;;;;14.50;8.37;;;;;;;;;;5038563;28;20284;-58
2022/09/21 06:32:30;;;;;;;12.27;6.43;;;;;;;;;;5037242;28;20033;-58
2022/09/21 06:34:56;;;;;;;15.57;8.03;;;;;;;;;;5037556;28;20045;-58
2022/09/21 06:37:22;;;;;;;8.67;6.03;;;;;;;;;;5042249;28;21090;-58
2022/09/21 06:39:48;;;;;;;8.37;5.80;;;;;;;;;;5028999;28;20049;-57
2022/09/21 06:42:14;;;;;;;11.40;6.97;;;;;;;;;;5047706;28;20045;-58
2022/09/21 06:44:40;;;;;;;13.13;7.20;;;;;;;;;;5031359;28;20049;-58
2022/09/21 06:47:06;;;;;;;18.07;9.20;;;;;;;;;;5031024;28;20091;-58
2022/09/21 06:49:32;;;;;;;12.70;7.10;;;;;;;;;;5044163;28;20111;-58
2022/09/21 06:51:58;;;;;;;14.37;9.20;;;;;;;;;;5040229;28;20478;-58
2022/09/21 06:54:25;;;;;;;13.13;7.57;;;;;;;;;;5040577;28;20124;-58
2022/09/21 06:56:51;;;;;;;17.17;10.00;;;;;;;;;;5046774;28;20057;-58
2022/09/21 06:59:17;;;;;;;15.90;8.93;;;;;;;;;;5047528;28;20423;-58
2022/09/21 07:01:43;;;;;;;16.83;8.20;;;;;;;;;;5028765;28;20054;-58
2022/09/21 07:04:09;;;;;;;16.67;9.40;;;;;;;;;;5031805;28;20605;-58
2022/09/21 07:06:35;;;;;;;22.47;11.90;;;;;;;;;;5027641;28;20049;-58
2022/09/21 07:09:02;;;;;;;13.03;8.80;;;;;;;;;;5045996;28;20053;-58
2022/09/21 07:11:28;;;;;;;16.53;9.17;;;;;;;;;;5049115;28;20128;-58
2022/09/21 07:13:55;;;;;;;18.23;12.27;;;;;;;;;;5031198;28;20096;-58
2022/09/21 07:16:22;;;;;;;19.80;13.13;;;;;;;;;;5031871;28;20095;-58
2022/09/21 07:18:48;;;;;;;27.60;15.57;;;;;;;;;;5045512;28;20088;-58
2022/09/21 07:21:14;;;;;;;23.50;16.50;;;;;;;;;;5049123;28;20360;-58
2022/09/21 07:23:40;;;;;;;18.20;11.87;;;;;;;;;;5048919;28;20037;-58
2022/09/21 07:26:08;;;;;;;16.97;12.30;;;;;;;;;;5050368;28;20714;-58
2022/09/21 07:28:35;;;;;;;16.80;11.47;;;;;;;;;;5049666;28;20044;-58
2022/09/21 07:31:08;;;;;;;17.33;10.73;;;;;;;;;;5044037;28;20046;-58
2022/09/21 07:33:37;;;;;;;14.47;10.33;;;;;;;;;;5031314;28;20538;-58
2022/09/21 07:36:08;;;;;;;18.47;12.83;;;;;;;;;;5046487;28;20044;-58
2022/09/21 07:38:36;;;;;;;20.80;12.27;;;;;;;;;;5050461;28;20044;-58
2022/09/21 07:41:02;;;;;;;14.40;9.67;;;;;;;;;;5043054;28;20041;-58
2022/09/21 07:43:28;;;;;;;20.67;12.80;;;;;;;;;;5050637;28;20052;-58
2022/09/21 07:45:54;;;;;;;18.50;11.43;;;;;;;;;;5049634;28;20577;-58
2022/09/21 07:48:21;;;;;;;11.77;9.33;;;;;;;;;;5050828;28;20048;-58
2022/09/21 07:50:48;;;;;;;14.07;9.77;;;;;;;;;;5050675;28;20049;-59
2022/09/21 07:53:16;;;;;;;18.43;9.13;;;;;;;;;;5044005;28;20947;-58
2022/09/21 07:55:42;;;;;;;13.70;8.20;;;;;;;;;;5030830;28;20057;-58
2022/09/21 08:00:53;;;;;;;13.70;8.73;;;;;;;;;;5050722;28;20137;-58
2022/09/21 08:03:19;;;;;;;11.87;7.63;;;;;;;;;;5050497;28;20499;-58
2022/09/21 08:05:45;;;;;;;16.33;7.30;;;;;;;;;;5050472;28;20037;-58
2022/09/21 08:08:11;;;;;;;13.40;7.97;;;;;;;;;;5044438;28;20053;-58
2022/09/21 08:10:38;;;;;;;17.33;8.67;;;;;;;;;;5035223;28;20140;-58
2022/09/21 08:13:04;;;;;;;13.47;8.13;;;;;;;;;;5042718;28;20418;-58
2022/09/21 08:15:30;;;;;;;11.53;6.20;;;;;;;;;;5045946;28;20045;-59
2022/09/21 08:17:57;;;;;;;11.53;5.00;;;;;;;;;;5049818;28;20052;-58
2022/09/21 08:20:23;;;;;;;12.57;6.50;;;;;;;;;;5049372;28;20423;-58
2022/09/21 08:22:52;;;;;;;14.53;5.77;;;;;;;;;;5049469;28;20045;-58
2022/09/21 08:25:18;;;;;;;15.27;5.63;;;;;;;;;;5039668;28;20057;-58
2022/09/21 08:27:44;;;;;;;15.07;6.60;;;;;;;;;;5031299;28;20073;-58
2022/09/21 08:30:12;;;;;;;14.73;5.30;;;;;;;;;;5033322;28;20073;-58
2022/09/21 08:32:38;;;;;;;9.90;4.97;;;;;;;;;;5049491;28;20072;-58
2022/09/21 08:35:05;;;;;;;9.33;4.20;;;;;;;;;;5029479;28;20053;-58
2022/09/21 08:37:32;;;;;;;12.77;4.50;;;;;;;;;;5043971;28;20107;-58
2022/09/21 08:39:59;;;;;;;12.97;4.20;;;;;;;;;;5041987;28;20049;-58
2022/09/21 08:42:40;;;;;;;13.63;3.83;;;;;;;;;;5044485;28;20064;-59
2022/09/21 08:45:10;;;;;;;10.50;4.03;;;;;;;;;;5050211;28;20053;-58
2022/09/21 08:47:39;;;;;;;11.93;4.10;;;;;;;;;;5049041;28;20045;-58
2022/09/21 08:50:11;;;;;;;13.33;2.90;;;;;;;;;;5049588;28;20419;-58
2022/09/21 08:52:37;;;;;;;6.17;2.83;;;;;;;;;;5049325;28;20384;-58
2022/09/21 08:55:16;;;;;;;9.07;2.53;;;;;;;;;;5050049;28;20051;-58
2022/09/21 08:57:42;;;;;;;12.70;2.47;;;;;;;;;;5038680;28;20145;-58
2022/09/21 09:00:13;;;;;;;9.53;2.60;;;;;;;;;;5049783;28;20135;-59
2022/09/21 09:02:51;;;;;;;11.57;2.60;;;;;;;;;;5048521;28;20041;-58
2022/09/21 09:05:35;;;;;;;9.30;1.80;;;;;;;;;;5050050;28;20052;-58
2022/09/21 09:08:11;;;;;;;4.70;1.37;;;;;;;;;;5049899;28;20049;-58
2022/09/21 09:11:02;;;;;;;6.67;1.77;;;;;;;;;;5048907;28;20045;-59
2022/09/21 09:13:30;;;;;;;6.00;1.40;;;;;;;;;;5049471;28;20123;-58
2022/09/21 09:16:04;;;;;;;5.50;1.60;;;;;;;;;;5049410;28;20056;-58
2022/09/21 09:18:43;;;;;;;5.80;1.87;;;;;;;;;;5049606;28;20127;-58
2022/09/21 09:21:13;;;;;;;9.07;1.70;;;;;;;;;;5049656;28;20086;-58
2022/09/21 09:23:49;;;;;;;5.73;1.30;;;;;;;;;;5049564;28;20063;-59
2022/09/21 09:26:21;;;;;;;6.47;1.70;;;;;;;;;;5049921;28;20110;-59
2022/09/21 09:28:50;;;;;;;12.63;4.23;;;;;;;;;;5049821;28;20049;-59
2022/09/21 09:31:24;;;;;;;6.67;1.70;;;;;;;;;;5049836;28;20185;-59
2022/09/21 09:33:57;;;;;;;10.50;1.50;;;;;;;;;;5029104;28;20038;-59
2022/09/21 09:36:23;;;;;;;;;;;;;;;;;;5029890;28;20191;-59
2022/09/21 09:38:57;;;;;;;6.27;1.30;;;;;;;;;;5029347;28;20438;-59
2022/09/21 09:41:30;;;;;;;6.57;1.47;;;;;;;;;;5029669;28;20049;-59
2022/09/21 09:43:56;;;;;;;;;;;;;;;;;;5029692;28;20037;-59
2022/09/21 09:46:42;;;;;;;6.10;1.10;;;;;;;;;;5031107;28;19921;-59
2022/09/21 09:49:15;;;;;;;7.73;1.30;;;;;;;;;;5043043;28;20079;-59
2022/09/21 09:51:41;;;;;;;8.35;1.30;;;;;;;;;;5048799;28;20124;-58
2022/09/21 09:54:13;;;;;;;5.77;1.07;;;;;;;;;;5041773;28;20042;-59
2022/09/21 09:56:39;;;;;;;8.77;1.43;;;;;;;;;;5039429;28;20116;-59
2022/09/21 09:59:09;;;;;;;6.33;1.27;;;;;;;;;;5049369;28;20195;-59
2022/09/21 10:01:48;;;;;;;7.13;1.13;;;;;;;;;;5048261;28;20037;-59
2022/09/21 10:04:16;;;;;;;3.93;1.07;;;;;;;;;;5031878;28;20076;-59
2022/09/21 10:06:43;;;;;;;3.47;1.00;;;;;;;;;;5040235;28;20045;-59
2022/09/21 10:09:27;;;;;;;5.07;0.93;;;;;;;;;;5047847;28;20049;-59
2022/09/21 10:11:56;;;;;;;4.60;1.03;;;;;;;;;;5048734;28;20512;-59
2022/09/21 10:14:23;;;;;;;5.87;1.00;;;;;;;;;;5047429;28;20402;-59
2022/09/21 10:16:53;;;;;;;6.47;1.13;;;;;;;;;;5043732;28;20187;-59
2022/09/21 10:19:24;;;;;;;7.50;1.20;;;;;;;;;;5045780;28;20124;-59
2022/09/21 10:21:54;;;;;;;5.43;1.40;;;;;;;;;;5032825;28;20719;-59
2022/09/21 10:24:22;;;;;;;4.23;1.20;;;;;;;;;;5048137;28;20047;-57
2022/09/21 10:26:53;;;;;;;5.27;1.10;;;;;;;;;;5035743;28;20494;-56
2022/09/21 10:29:22;;;;;;;4.87;1.60;;;;;;;;;;5037917;28;20061;-56
2022/09/21 10:31:57;;;;;;;6.73;1.10;;;;;;;;;;5030136;28;20345;-57
2022/09/21 10:34:24;;;;;;;7.10;1.23;;;;;;;;;;5041305;28;20045;-56
2022/09/21 10:36:51;;;;;;;3.80;1.17;;;;;;;;;;5028050;28;20076;-57
2022/09/21 10:39:30;;;;;;;5.63;1.27;;;;;;;;;;5041711;28;20042;-57
2022/09/21 10:41:58;;;;;;;4.57;1.37;;;;;;;;;;5029760;28;20045;-56
2022/09/21 10:44:43;;;;;;;4.47;1.17;;;;;;;;;;5048521;28;20041;-56
2022/09/21 10:47:33;;;;;;;5.73;1.20;;;;;;;;;;5046219;28;20051;-58
2022/09/21 10:50:01;;;;;;;5.73;1.23;;;;;;;;;;5041257;28;20049;-58
2022/09/21 10:52:41;;;;;;;6.33;1.60;;;;;;;;;;5041252;28;20119;-58
2022/09/21 10:55:14;;;;;;;6.63;1.47;;;;;;;;;;5047779;28;20518;-58
2022/09/21 10:57:40;;;;;;;;;;;;;;;;;;5048708;28;20431;-59
2022/09/21 11:00:12;;;;;;;3.97;1.00;;;;;;;;;;5046453;28;19932;-59
2022/09/21 11:02:38;;;;;;;4.07;0.90;;;;;;;;;;5040828;28;20507;-58
2022/09/21 11:05:11;;;;;;;6.57;1.00;;;;;;;;;;5041894;28;20139;-59
2022/09/21 11:07:43;;;;;;;5.33;1.00;;;;;;;;;;5047712;28;20044;-59
2022/09/21 11:10:14;;;;;;;5.85;1.30;;;;;;;;;;5031086;28;20081;-59
2022/09/21 11:12:43;;;;;;;5.93;1.30;;;;;;;;;;5038784;28;20533;-59
2022/09/21 11:15:32;;;;;;;8.30;1.30;;;;;;;;;;5027710;28;20172;-59
2022/09/21 11:18:05;;;;;;;6.23;1.23;;;;;;;;;;5047841;28;20056;-59
2022/09/21 11:20:34;;;;;;;5.95;1.27;;;;;;;;;;5047752;28;20060;-59
2022/09/21 11:23:04;;;;;;;7.05;1.45;;;;;;;;;;5048006;28;20418;-59
2022/09/21 11:25:31;;;;;;;6.70;2.20;;;;;;;;;;5047111;28;20041;-59
2022/09/21 11:28:03;;;;;;;5.72;1.13;;;;;;;;;;5048207;28;20060;-59
2022/09/21 11:30:45;;;;;;;6.10;1.15;;;;;;;;;;5047472;28;20477;-59
2022/09/21 11:33:11;;;;;;;4.90;1.50;;;;;;;;;;5048180;28;20467;-60
2022/09/21 11:35:57;;;;;;;7.20;1.75;;;;;;;;;;5048016;28;20064;-59
2022/09/21 11:38:39;;;;;;;6.20;1.27;;;;;;;;;;5035156;28;20045;-59
2022/09/21 11:41:43;;;;;;;3.85;0.98;;;;;;;;;;5045023;28;20055;-59
2022/09/21 11:44:15;;;;;;;3.78;1.02;;;;;;;;;;4970147;28;20548;-58
2022/09/21 11:46:41;;;;;;;5.87;1.33;;;;;;;;;;4986723;28;20055;-58
2022/09/21 11:49:18;;;;;;;4.15;0.90;;;;;;;;;;5016667;28;20044;-59
2022/09/21 11:51:51;;;;;;;5.57;1.23;;;;;;;;;;5027972;28;20111;-58
2022/09/21 11:54:20;;;;;;;4.28;0.95;;;;;;;;;;5040408;28;20131;-58
2022/09/21 11:56:56;;;;;;;5.28;1.10;;;;;;;;;;5048832;28;20531;-59
2022/09/21 11:59:22;;;;;;;5.03;1.20;;;;;;;;;;5043182;28;20053;-58
2022/09/21 12:01:55;;;;;;;4.25;1.10;;;;;;;;;;5047498;28;20055;-59
2022/09/21 12:04:21;;;;;;;;;;;;;;;;;;5051358;28;20130;-60
2022/09/21 12:06:46;;;;;;;4.57;1.17;;;;;;;;;;5052162;28;19967;-60
2022/09/21 12:09:12;;;;;;;5.78;1.20;;;;;;;;;;5050901;28;20088;-60
2022/09/21 12:11:58;;;;;;;3.40;1.00;;;;;;;;;;5051585;28;20056;-59
2022/09/21 12:14:32;;;;;;;3.65;1.27;;;;;;;;;;5043444;28;20120;-60
2022/09/21 12:16:58;;;;;;;4.45;1.20;;;;;;;;;;5050007;28;20411;-59
2022/09/21 12:19:27;;;;;;;5.40;1.30;;;;;;;;;;5031801;28;20049;-59
2022/09/21 12:21:58;;;;;;;4.05;1.20;;;;;;;;;;5044529;28;20491;-59
2022/09/21 12:24:30;;;;;;;4.30;0.90;;;;;;;;;;5034922;28;20124;-59
2022/09/21 12:26:58;;;;;;;4.10;1.33;;;;;;;;;;5041939;28;20506;-59
2022/09/21 12:29:34;;;;;;;3.90;1.02;;;;;;;;;;5045077;28;20430;-59
2022/09/21 12:32:13;;;;;;;8.95;1.27;;;;;;;;;;5045020;28;20056;-59
2022/09/21 12:34:41;;;;;;;3.88;1.08;;;;;;;;;;5049417;28;20533;-60
2022/09/21 12:37:18;;;;;;;7.15;1.45;;;;;;;;;;5031460;28;20045;-60
2022/09/21 12:40:05;;;;;;;4.82;1.17;;;;;;;;;;5043156;28;20080;-59
2022/09/21 12:42:47;;;;;;;5.55;1.20;;;;;;;;;;5049002;28;20526;-61
2022/09/21 12:45:13;;;;;;;4.30;1.20;;;;;;;;;;5049912;28;20511;-59
2022/09/21 12:47:48;;;;;;;4.97;1.50;;;;;;;;;;5041221;28;20060;-60
2022/09/21 12:50:20;;;;;;;2.97;0.90;;;;;;;;;;5051016;28;20053;-60
2022/09/21 12:52:48;;;;;;;6.40;1.17;;;;;;;;;;5033100;28;20121;-59
2022/09/21 12:55:34;;;;;;;1.85;0.70;;;;;;;;;;5041652;28;20056;-60
2022/09/21 12:58:06;;;;;;;7.35;1.30;;;;;;;;;;5003256;28;20411;-60
2022/09/21 13:00:45;;;;;;;9.50;1.42;;;;;;;;;;5050165;28;20049;-60
2022/09/21 13:03:18;;;;;;;5.50;0.95;;;;;;;;;;5048508;28;20554;-60
2022/09/21 13:05:44;;;;;;;5.63;1.20;;;;;;;;;;5048983;28;20450;-60
2022/09/21 13:08:11;;;;;;;5.43;1.42;;;;;;;;;;5047571;28;20503;-60
2022/09/21 13:10:38;;;;;;;3.85;1.50;;;;;;;;;;5047413;28;20049;-60
2022/09/21 13:13:07;;;;;;;4.55;1.25;;;;;;;;;;5047878;28;20084;-60
2022/09/21 13:15:41;;;;;;;4.95;1.15;;;;;;;;;;5047944;28;20045;-60
2022/09/21 13:18:37;;;;;;;3.55;1.10;;;;;;;;;;5047047;28;20040;-59
2022/09/21 13:21:21;;;;;;;6.18;1.17;;;;;;;;;;5035458;28;20053;-60
2022/09/21 13:23:54;;;;;;;4.20;1.00;;;;;;;;;;5049574;28;20043;-60
2022/09/21 13:26:30;;;;;;;4.53;1.23;;;;;;;;;;5049675;28;20045;-60
2022/09/21 13:28:56;;;;;;;3.88;0.90;;;;;;;;;;5050310;28;20045;-60
2022/09/21 13:31:34;;;;;;;4.43;1.30;;;;;;;;;;5049189;28;20457;-60
2022/09/21 13:34:21;;;;;;;3.78;0.90;;;;;;;;;;5043211;28;20360;-60
2022/09/21 13:37:07;;;;;;;8.90;1.98;;;;;;;;;;5042951;28;20256;-60
2022/09/21 13:39:33;;;;;;;5.85;1.27;;;;;;;;;;5038545;28;20037;-60
2022/09/21 13:42:19;;;;;;;4.50;1.20;;;;;;;;;;5038602;28;20052;-60
2022/09/21 13:44:45;;;;;;;6.30;1.20;;;;;;;;;;5040179;28;20124;-60
2022/09/21 13:47:12;;;;;;;3.22;1.05;;;;;;;;;;5037959;28;20041;-60
2022/09/21 13:49:52;;;;;;;3.28;1.00;;;;;;;;;;5038746;28;20052;-60
2022/09/21 13:52:25;;;;;;;7.88;1.73;;;;;;;;;;5039529;28;20076;-61
2022/09/21 13:54:53;;;;;;;4.10;0.93;;;;;;;;;;5043346;28;20072;-61
2022/09/21 13:57:23;;;;;;;5.13;1.05;;;;;;;;;;5048724;28;20064;-61
2022/09/21 14:00:07;;;;;;;2.42;0.70;;;;;;;;;;5038964;28;20418;-61
2022/09/21 14:02:38;;;;;;;3.50;0.93;;;;;;;;;;5037798;28;21038;-61
2022/09/21 14:05:19;;;;;;;3.80;0.90;;;;;;;;;;5040124;28;20049;-61
2022/09/21 14:07:46;;;;;;;3.55;1.05;;;;;;;;;;5040033;28;20132;-61
2022/09/21 14:10:18;;;;;;;5.50;1.38;;;;;;;;;;5039026;28;20049;-61
2022/09/21 14:12:44;;;;;;;3.63;1.40;;;;;;;;;;5037898;28;20598;-61
2022/09/21 14:15:17;;;;;;;4.35;0.95;;;;;;;;;;5039482;28;20041;-61
2022/09/21 14:17:44;;;;;;;3.47;0.90;;;;;;;;;;5037909;28;20461;-62
2022/09/21 14:20:29;;;;;;;5.32;1.33;;;;;;;;;;5038118;28;20099;-62
2022/09/21 14:23:13;;;;;;;5.15;0.90;;;;;;;;;;5038140;28;20080;-61
2022/09/21 14:26:09;;;;;;;2.75;0.88;;;;;;;;;;5037352;28;20045;-61
2022/09/21 14:28:41;;;;;;;5.10;0.88;;;;;;;;;;5022805;28;20049;-61
2022/09/21 14:31:14;;;;;;;4.40;1.13;;;;;;;;;;5038143;28;20124;-61
2022/09/21 14:33:48;;;;;;;5.88;1.75;;;;;;;;;;5037312;28;20091;-61
2022/09/21 14:36:18;;;;;;;3.92;0.85;;;;;;;;;;5037795;28;20086;-61
2022/09/21 14:38:59;;;;;;;3.28;0.95;;;;;;;;;;5035680;28;20084;-62
2022/09/21 14:41:30;;;;;;;2.30;0.75;;;;;;;;;;5037629;28;20570;-61
2022/09/21 14:43:57;;;;;;;3.63;0.70;;;;;;;;;;5039125;28;21223;-62
2022/09/21 14:46:34;;;;;;;2.65;0.85;;;;;;;;;;5037604;28;20041;-62
2022/09/21 14:49:11;;;;;;;4.45;0.90;;;;;;;;;;5036419;28;20053;-61
2022/09/21 14:51:40;;;;;;;3.60;0.82;;;;;;;;;;5037271;28;20555;-61
2022/09/21 14:54:19;;;;;;;4.47;1.08;;;;;;;;;;5038372;28;20045;-61
2022/09/21 14:56:52;;;;;;;3.90;1.05;;;;;;;;;;5037749;28;20046;-61
2022/09/21 14:59:24;;;;;;;5.00;1.10;;;;;;;;;;5037142;28;20403;-62
2022/09/21 15:01:58;;;;;;;5.72;1.00;;;;;;;;;;5037862;28;20045;-61